Temperatura máxima Desde: 20-07-2019 12:00 Hasta: 19:59 Aviso por: Temperatura máxima Nivel: Naranja info button
español:
Temperatura máxima: 40 ºC. Esté preparado. Tome precauciones y manténgase informado de la predicción meteorológica más actualizada. Las actividades habituales pueden verse alteradas y las realizadas al aire libre, interrumpidas.

english:
Maximum temperature: 40 ºC. Be prepared. Take precautions and keep up to date with the latest weather forecast. Expect some disruption to daily routines and be prepared for disruption to outdoor activities. 

Informes METAR

 

LEZL - Sevilla, Spain
Distancia de la estación: ENE 8km
Actualización: 20/07/2019 13:30
Despejado
Despejado
 Viento de SO
Viento: SO 7 km/h
Temperatura: 33°C
Rocío: 14°C
Humedad: 32%
Barómetro: 1013 hPa
Resumen: Despejado
Visibilidad: mayor de 10 km
2019/07/20 11:30 LEZL 201130Z 23004KT CAVOK 33/14 Q1013 NOSIG
LEMO - Morón, Spain
Distancia de la estación: SE 43km
Actualización: 20/07/2019 13:00
Despejado
Despejado
 Viento de variable
Viento: variable 4 km/h
Temperatura: 33°C
Rocío: 13°C
Humedad: 30%
Barómetro: 1013 hPa
Resumen: Despejado
Visibilidad: mayor de 10 km
2019/07/20 11:00 LEMO 201100Z VRB02KT CAVOK 33/13 Q1013 NOSIG
LEJR - Jeréz, Spain
Distancia de la estación: S 71km
Actualización: 20/07/2019 13:30
Despejado
Despejado
 Viento de variable
Viento: variable 7 km/h
Temperatura: 34°C
Rocío: 15°C
Humedad: 32%
Barómetro: 1013 hPa
Resumen: Despejado
Visibilidad: mayor de 10 km
2019/07/20 11:30 LEJR 201130Z VRB04KT CAVOK 34/15 Q1013
 
LERT - Rota, Spain
Distancia de la estación: SSO 89km
Actualización: 20/07/2019 13:00
Despejado
Despejado
 Viento de ONO
Viento: ONO 11 km/h
Temperatura: 28°C
índice de calor: 29°C
Rocío: 19°C
Humedad: 58%
Barómetro: 1014 hPa
Resumen: Despejado
Visibilidad: mayor de 10 km
2019/07/20 11:00 LERT 201100Z 29006KT 250V350 CAVOK 28/19 Q1014 NOSIG
LEMG - Málaga, Spain
Distancia de la estación: ESE 157km
Actualización: 20/07/2019 13:30
Despejado
Despejado
 Viento de SSE
Viento: SSE 22 km/h
Temperatura: 32°C
índice de calor: 33°C
Rocío: 18°C
Humedad: 43%
Barómetro: 1012 hPa
Resumen: Despejado
Visibilidad: mayor de 10 km
2019/07/20 11:30 LEMG 201130Z 16012KT 110V200 CAVOK 32/18 Q1012 NOSIG
LEBA - Córdoba, Spain
Distancia de la estación: ENE 115km
Actualización: 20/07/2019 13:30
Despejado
Despejado
 Viento de variable
Viento: variable 6 km/h
Temperatura: 34°C
Rocío: 14°C
Humedad: 30%
Barómetro: 1013 hPa
Resumen: Despejado
Visibilidad: mayor de 10 km
2019/07/20 11:30 LEBA 201130Z VRB03KT CAVOK 34/14 Q1013
 
LEGR - Granada, Spain
Distancia de la estación: E 198km
Actualización: 20/07/2019 13:30
Despejado
Despejado
 Viento de variable
Viento: variable 2 km/h
Temperatura: 34°C
Rocío: 10°C
Humedad: 23%
Barómetro: 1016 hPa
Resumen: Despejado
Visibilidad: mayor de 10 km
2019/07/20 11:30 LEGR 201130Z VRB01KT CAVOK 34/10 Q1016
LEAM - Almería, Spain
Distancia de la estación: E 326km
Actualización: 20/07/2019 13:30
Despejado
Despejado
 Viento de SSO
Viento: SSO 13 km/h
Temperatura: 27°C
índice de calor: 29°C
Rocío: 21°C
Humedad: 70%
Barómetro: 1013 hPa
Resumen: Despejado
Visibilidad: mayor de 10 km
2019/07/20 11:30 LEAM 201130Z 21007KT 170V270 CAVOK 27/21 Q1013
LEMD - Madrid/Barajas, Spain
Distancia de la estación: NNE 402km
Actualización: 20/07/2019 13:30
Despejado
Despejado
 Viento de SE
Viento: SE 9 km/h
Temperatura: 33°C
Rocío: 11°C
Humedad: 26%
Barómetro: 1016 hPa
Resumen: Despejado
Visibilidad: mayor de 10 km
2019/07/20 11:30 LEMD 201130Z 14005KT CAVOK 33/11 Q1016 NOSIG
 
LEVD - Valladolid, Spain
Distancia de la estación: N 492km
Actualización: 20/07/2019 13:30
Despejado
Despejado
 Viento de ONO
Viento: ONO 7 km/h
Temperatura: 29°C
Rocío: 12°C
Humedad: 35%
Barómetro: 1018 hPa
Resumen: Despejado
Visibilidad: mayor de 10 km
2019/07/20 11:30 LEVD 201130Z 29004KT 200V010 CAVOK 29/12 Q1018
LEBL - Barcelona, Spain
Distancia de la estación: NE 816km
Actualización: 20/07/2019 13:30
Despejado
Despejado
 Viento de SE
Viento: SE 17 km/h
Temperatura: 28°C
índice de calor: 31°C
Rocío: 23°C
Humedad: 74%
Barómetro: 1016 hPa
Resumen: Despejado
Visibilidad: mayor de 10 km
2019/07/20 11:30 LEBL 201130Z 14009KT 110V190 CAVOK 28/23 Q1016 NOSIG
LEVC - Valencia, Spain
Distancia de la estación: ENE 535km
Actualización: 20/07/2019 13:30
Despejado
Despejado
 Viento de SE
Viento: SE 15 km/h
Temperatura: 31°C
índice de calor: 32°C
Rocío: 17°C
Humedad: 43%
Barómetro: 1016 hPa
Resumen: Despejado
Visibilidad: mayor de 10 km
2019/07/20 11:30 LEVC 201130Z 13008KT 090V170 CAVOK 31/17 Q1016 NOSIG